Ellsworth Air Force Base
KRCA : now visible

Airfield :











YOU CAN JOIN US ON...

 
LOGIN :

Register | Disclaimer

   EN    FR    IT 

 









Legend :    VFR   Marginal VFR   IFR   Intensive IFR   Very Intensive IFR
Visi :
Ceiling :
>= 8 km
>= 3000ft
5 to 8 km
1000 to 3000 ft
1500m to 5 km
500 to 1000 ft
800 to 1500m
200 to 500 ft
< 800m
< 200 ft
Symbols :   Thunderstorms  Fog  Heavy snow  Heavy precipitations  Wind > 20 kt






- Airport Elevation : 3276 ft


KRCA - Ellsworth Air Force Base

CURRENT METAR :
  • 281256Z AUTO 31016KT 10SM CLR 02/M05 A3010 RMK AO2 SLP221 T00151048 $

EXPIRED METARs :
  • 281156Z AUTO 31015KT 10SM CLR 01/M05 A3009 RMK AO2 SLP217 70002 T00101053 10023 21035 53010 $
  • 281056Z AUTO 31016KT 10SM CLR 01/M06 A3007 RMK AO2 SLP210 T00131056 $

TAF TAF KRCA
Valid from the 28 at 11:00 until the 29 at 17:00 UTC


281100Z 2811/2917 31012KT 9999 FEW080 QNH2971INS TX10/2817Z TN00/2811Z



MET'MAP, your aeronautical weather chart ! - Copyright ORBIFLY December 2007 - Disclaimer

ORBIFLY MET'MAP TEAM :

Programming & Development : Alexandra Zaïnal
Concept & original design : Baudouin d'Aumeries
Assistance for programming : Marc-Olivier Méhu
Technical & hardware support : Manuel Goepfert

Contact : metmap@orbifly.com




SOURCES & CREDITS :

   NOAA       Earth
Advisory